Time;durP1;ratioP1;P1;durP2;ratioP2;P2;SDS_P1;SDS_P2;PMS_P1;PMS_P2;Temp;Humidity;BMP_temperature;BMP_pressure;BME280_temperature;BME280_humidity;BME280_pressure;Samples;Min_cycle;Max_cycle;Signal;HPM_P1;HPM_P2
2022/09/28 00:00:32;;;;;;;9.38;4.55;;;;;;;;;;5071768;28;20626;-55
2022/09/28 00:02:59;;;;;;;8.27;4.05;;;;;;;;;;5069018;28;20490;-54
2022/09/28 00:05:25;;;;;;;16.25;4.90;;;;;;;;;;5070300;28;20032;-54
2022/09/28 00:07:55;;;;;;;7.32;4.85;;;;;;;;;;5071599;28;20112;-55
2022/09/28 00:10:24;;;;;;;14.35;4.22;;;;;;;;;;5071677;28;20154;-55
2022/09/28 00:12:51;;;;;;;14.88;4.55;;;;;;;;;;5070721;28;20401;-55
2022/09/28 00:15:17;;;;;;;19.02;4.72;;;;;;;;;;5071933;28;20024;-52
2022/09/28 00:17:43;;;;;;;14.75;4.57;;;;;;;;;;5068825;28;20052;-55
2022/09/28 00:20:10;;;;;;;9.77;4.80;;;;;;;;;;5070119;28;20063;-55
2022/09/28 00:22:37;;;;;;;7.82;4.40;;;;;;;;;;5061456;28;20029;-55
2022/09/28 00:25:03;;;;;;;12.87;5.10;;;;;;;;;;5051791;28;20526;-51
2022/09/28 00:27:29;;;;;;;11.20;4.43;;;;;;;;;;5063926;28;20153;-52
2022/09/28 00:29:55;;;;;;;15.63;4.70;;;;;;;;;;5071317;28;20024;-53
2022/09/28 00:32:23;;;;;;;12.37;3.70;;;;;;;;;;5057806;28;20025;-55
2022/09/28 00:34:50;;;;;;;16.17;5.05;;;;;;;;;;5067896;28;20266;-53
2022/09/28 00:37:17;;;;;;;12.75;4.30;;;;;;;;;;5057436;28;20036;-56
2022/09/28 00:39:44;;;;;;;11.75;4.30;;;;;;;;;;5064915;28;20028;-55
2022/09/28 00:42:23;;;;;;;12.33;4.87;;;;;;;;;;5069958;28;20034;-53
2022/09/28 00:44:59;;;;;;;11.40;3.97;;;;;;;;;;5071141;28;20028;-56
2022/09/28 00:47:25;;;;;;;11.50;4.55;;;;;;;;;;5054758;28;20025;-54
2022/09/28 00:49:54;;;;;;;11.98;4.20;;;;;;;;;;5053696;28;20039;-56
2022/09/28 00:52:29;;;;;;;8.20;3.20;;;;;;;;;;5066503;28;20013;-55
2022/09/28 00:54:56;;;;;;;12.73;4.85;;;;;;;;;;5052453;28;20029;-53
2022/09/28 00:57:22;;;;;;;8.88;3.92;;;;;;;;;;5064816;28;20032;-57
2022/09/28 00:59:49;;;;;;;13.50;4.00;;;;;;;;;;5071342;28;20024;-56
2022/09/28 01:02:15;;;;;;;16.63;4.72;;;;;;;;;;5053132;28;20029;-56
2022/09/28 01:04:41;;;;;;;11.30;3.75;;;;;;;;;;5051238;28;20040;-53
2022/09/28 01:07:08;;;;;;;8.73;3.55;;;;;;;;;;5052272;28;20115;-55
2022/09/28 01:09:36;;;;;;;10.85;4.40;;;;;;;;;;5052269;28;20025;-53
2022/09/28 01:12:02;;;;;;;12.88;3.70;;;;;;;;;;5051317;28;20093;-55
2022/09/28 01:14:28;;;;;;;9.45;3.78;;;;;;;;;;5051279;28;20040;-56
2022/09/28 01:17:02;;;;;;;9.75;3.60;;;;;;;;;;5060086;28;20033;-54
2022/09/28 01:19:28;;;;;;;8.13;3.45;;;;;;;;;;5054945;28;20521;-55
2022/09/28 01:22:07;;;;;;;7.97;4.32;;;;;;;;;;5067814;28;20025;-57
2022/09/28 01:24:46;;;;;;;5.03;3.90;;;;;;;;;;5059275;28;20025;-54
2022/09/28 01:27:25;;;;;;;7.85;3.95;;;;;;;;;;5062389;28;20495;-55
2022/09/28 01:29:54;;;;;;;9.35;4.72;;;;;;;;;;5055871;28;20024;-55
2022/09/28 01:32:23;;;;;;;14.13;6.40;;;;;;;;;;5054967;28;20009;-57
2022/09/28 01:34:55;;;;;;;12.02;5.90;;;;;;;;;;5054267;28;20380;-54
2022/09/28 01:37:26;;;;;;;9.80;6.35;;;;;;;;;;5067325;28;20024;-57
2022/09/28 01:39:53;;;;;;;10.35;7.40;;;;;;;;;;5073796;28;20107;-55
2022/09/28 01:42:23;;;;;;;16.30;8.80;;;;;;;;;;5073092;28;20487;-56
2022/09/28 01:44:51;;;;;;;15.45;8.60;;;;;;;;;;5069442;28;20028;-57
2022/09/28 01:47:19;;;;;;;17.08;9.00;;;;;;;;;;5066153;28;20111;-55
2022/09/28 01:49:48;;;;;;;12.18;9.35;;;;;;;;;;5066321;28;20395;-55
2022/09/28 01:52:20;;;;;;;11.75;8.98;;;;;;;;;;5071167;28;20079;-51
2022/09/28 01:54:55;;;;;;;21.75;10.45;;;;;;;;;;5054330;28;20394;-54
2022/09/28 01:57:28;;;;;;;16.35;10.35;;;;;;;;;;5060674;28;20024;-56
2022/09/28 02:00:06;;;;;;;17.38;10.63;;;;;;;;;;5089572;28;20054;-57
2022/09/28 02:02:35;;;;;;;14.10;10.18;;;;;;;;;;5088134;28;20020;-54
2022/09/28 02:05:12;;;;;;;13.38;10.93;;;;;;;;;;5074357;28;20033;-58
2022/09/28 02:07:41;;;;;;;14.25;11.20;;;;;;;;;;5071717;28;20028;-55
2022/09/28 02:10:10;;;;;;;16.30;11.05;;;;;;;;;;5073779;28;20033;-56
2022/09/28 02:12:40;;;;;;;16.52;12.43;;;;;;;;;;5067959;28;20549;-57
2022/09/28 02:15:14;;;;;;;15.10;12.30;;;;;;;;;;5053055;28;20506;-55
2022/09/28 02:17:40;;;;;;;19.75;13.77;;;;;;;;;;5054628;28;20017;-56
2022/09/28 02:20:07;;;;;;;16.58;13.05;;;;;;;;;;5054081;28;20099;-53
2022/09/28 02:22:36;;;;;;;17.30;13.73;;;;;;;;;;5057554;28;20025;-55
2022/09/28 02:25:12;;;;;;;19.65;13.30;;;;;;;;;;5070401;28;20101;-56
2022/09/28 02:27:47;;;;;;;16.85;14.05;;;;;;;;;;5088111;23;20163;-58
2022/09/28 02:30:13;;;;;;;16.63;13.82;;;;;;;;;;5052260;28;20029;-59
2022/09/28 02:32:41;;;;;;;18.98;14.70;;;;;;;;;;5053212;28;20079;-59
2022/09/28 02:35:13;;;;;;;17.88;14.45;;;;;;;;;;5053316;28;20024;-58
2022/09/28 02:37:39;;;;;;;19.85;15.27;;;;;;;;;;5052840;28;20061;-58
2022/09/28 02:40:14;;;;;;;19.33;14.32;;;;;;;;;;5053568;28;20529;-58
2022/09/28 02:42:53;;;;;;;20.48;14.90;;;;;;;;;;5047621;28;20018;-59
2022/09/28 02:45:37;;;;;;;18.05;14.55;;;;;;;;;;5033744;28;20030;-59
2022/09/28 02:48:09;;;;;;;17.35;14.63;;;;;;;;;;5033570;28;20109;-58
2022/09/28 02:50:41;;;;;;;15.32;12.15;;;;;;;;;;5038118;28;20572;-58
2022/09/28 02:53:08;;;;;;;17.70;12.30;;;;;;;;;;5052415;28;20084;-59
2022/09/28 02:55:34;;;;;;;13.20;11.07;;;;;;;;;;5036941;28;20026;-59
2022/09/28 02:58:03;;;;;;;15.77;11.95;;;;;;;;;;5064315;28;20108;-59
2022/09/28 03:00:30;;;;;;;12.98;10.23;;;;;;;;;;5070161;28;20100;-59
2022/09/28 03:03:15;;;;;;;10.60;9.50;;;;;;;;;;5034682;28;20029;-58
2022/09/28 03:05:50;;;;;;;14.52;10.05;;;;;;;;;;5044732;28;20071;-60
2022/09/28 03:08:16;;;;;;;11.27;10.18;;;;;;;;;;5052131;28;20498;-57
2022/09/28 03:11:14;;;;;;;11.55;9.18;;;;;;;;;;5044458;28;20028;-58
2022/09/28 03:13:40;;;;;;;11.93;9.15;;;;;;;;;;4999901;28;20508;-58
2022/09/28 03:16:09;;;;;;;10.57;9.48;;;;;;;;;;5036118;28;20036;-59
2022/09/28 03:18:35;;;;;;;13.25;9.10;;;;;;;;;;5042304;28;20024;-57
2022/09/28 03:21:02;;;;;;;9.82;8.73;;;;;;;;;;5049742;28;20029;-59
2022/09/28 03:23:28;;;;;;;9.95;7.22;;;;;;;;;;5052255;28;20503;-59
2022/09/28 03:25:54;;;;;;;8.35;6.93;;;;;;;;;;5051494;28;20036;-56
2022/09/28 03:28:21;;;;;;;8.97;7.17;;;;;;;;;;5052080;28;20294;-58
2022/09/28 03:30:47;;;;;;;9.27;7.70;;;;;;;;;;5051880;28;20017;-60
2022/09/28 03:33:13;;;;;;;8.55;6.47;;;;;;;;;;5052676;28;20083;-57
2022/09/28 03:35:39;;;;;;;8.50;6.80;;;;;;;;;;5052649;28;20024;-58
2022/09/28 03:38:05;;;;;;;7.55;6.75;;;;;;;;;;5051503;28;20035;-59
2022/09/28 03:40:31;;;;;;;10.55;7.47;;;;;;;;;;5052376;28;20446;-59
2022/09/28 03:42:58;;;;;;;7.70;6.35;;;;;;;;;;5050629;28;20036;-58
2022/09/28 03:45:24;;;;;;;7.32;6.63;;;;;;;;;;5052412;28;20024;-59
2022/09/28 03:47:51;;;;;;;8.10;6.80;;;;;;;;;;5051547;28;20033;-58
2022/09/28 03:50:17;;;;;;;8.23;6.03;;;;;;;;;;5039949;28;20017;-57
2022/09/28 03:52:43;;;;;;;8.38;6.10;;;;;;;;;;5032782;28;20559;-58
2022/09/28 03:55:09;;;;;;;6.13;5.55;;;;;;;;;;5032503;28;20053;-59
2022/09/28 03:57:36;;;;;;;6.43;5.65;;;;;;;;;;5032239;28;20100;-59
2022/09/28 04:00:02;;;;;;;7.20;5.57;;;;;;;;;;5032113;28;20040;-59
2022/09/28 04:02:29;;;;;;;6.95;4.95;;;;;;;;;;5032019;28;20071;-58
2022/09/28 04:04:55;;;;;;;6.40;4.93;;;;;;;;;;5032284;28;20032;-59
2022/09/28 04:07:21;;;;;;;5.28;4.78;;;;;;;;;;5032037;28;20025;-59
2022/09/28 04:09:47;;;;;;;5.53;5.00;;;;;;;;;;5031903;28;20527;-59
2022/09/28 04:12:14;;;;;;;5.20;4.70;;;;;;;;;;5032085;28;20029;-58
2022/09/28 04:14:40;;;;;;;5.60;4.40;;;;;;;;;;5031979;28;20549;-59
2022/09/28 04:17:06;;;;;;;5.60;5.10;;;;;;;;;;5032002;28;20057;-59
2022/09/28 04:19:32;;;;;;;6.67;5.00;;;;;;;;;;5031936;28;20407;-59
2022/09/28 04:22:00;;;;;;;6.13;5.07;;;;;;;;;;5032023;28;20486;-58
2022/09/28 04:24:26;;;;;;;5.68;4.97;;;;;;;;;;5031955;28;20104;-58
2022/09/28 04:29:14;;;;;;;7.68;4.82;;;;;;;;;;5031814;28;20108;-58
2022/09/28 04:29:41;;;;;;;7.55;5.65;;;;;;;;;;5031965;28;20042;-59
2022/09/28 04:32:08;;;;;;;10.18;5.28;;;;;;;;;;5031946;28;20083;-58
2022/09/28 04:34:34;;;;;;;5.47;4.97;;;;;;;;;;5031879;28;20483;-58
2022/09/28 04:37:00;;;;;;;6.60;5.63;;;;;;;;;;5031804;28;20116;-59
2022/09/28 04:39:25;;;;;;;9.35;5.97;;;;;;;;;;5031545;28;20036;-59
2022/09/28 04:41:51;;;;;;;10.95;5.03;;;;;;;;;;5031778;28;20051;-59
2022/09/28 04:44:17;;;;;;;6.38;5.40;;;;;;;;;;5030356;28;20032;-59
2022/09/28 04:46:43;;;;;;;6.25;5.18;;;;;;;;;;5031583;28;20037;-59
2022/09/28 04:49:10;;;;;;;5.80;4.95;;;;;;;;;;5031498;28;20075;-58
2022/09/28 04:51:36;;;;;;;6.85;5.38;;;;;;;;;;5030997;28;20026;-59
2022/09/28 04:54:02;;;;;;;5.68;5.13;;;;;;;;;;5031630;28;20033;-59
2022/09/28 04:56:28;;;;;;;5.22;4.72;;;;;;;;;;5031662;28;20033;-58
2022/09/28 04:58:54;;;;;;;4.78;4.32;;;;;;;;;;5031242;28;20199;-58
2022/09/28 05:01:22;;;;;;;7.35;5.38;;;;;;;;;;5030276;28;20033;-58
2022/09/28 05:03:49;;;;;;;11.43;5.07;;;;;;;;;;5031450;28;20025;-59
2022/09/28 05:06:15;;;;;;;7.50;5.07;;;;;;;;;;5031367;28;20399;-59
2022/09/28 05:08:42;;;;;;;7.47;4.93;;;;;;;;;;5031224;28;20056;-59
2022/09/28 05:11:10;;;;;;;10.05;5.40;;;;;;;;;;5031436;28;20450;-58
2022/09/28 05:13:41;;;;;;;5.25;4.50;;;;;;;;;;5031359;28;20111;-59
2022/09/28 05:16:07;;;;;;;6.93;4.70;;;;;;;;;;5031398;28;20014;-58
2022/09/28 05:18:33;;;;;;;6.85;4.07;;;;;;;;;;5031220;28;20036;-58
2022/09/28 05:21:00;;;;;;;8.20;5.05;;;;;;;;;;5031313;28;20025;-57
2022/09/28 05:23:26;;;;;;;4.55;4.13;;;;;;;;;;5031288;28;20491;-59
2022/09/28 05:25:52;;;;;;;6.95;4.13;;;;;;;;;;5031361;28;20435;-59
2022/09/28 05:28:26;;;;;;;4.10;3.70;;;;;;;;;;5030948;28;20550;-57
2022/09/28 05:30:52;;;;;;;5.78;4.25;;;;;;;;;;5031310;28;20087;-58
2022/09/28 05:33:18;;;;;;;4.22;3.83;;;;;;;;;;5031039;28;20510;-58
2022/09/28 05:35:44;;;;;;;7.55;4.40;;;;;;;;;;5031293;28;20026;-58
2022/09/28 05:38:10;;;;;;;6.00;3.60;;;;;;;;;;5031090;28;20025;-58
2022/09/28 05:40:36;;;;;;;4.53;3.97;;;;;;;;;;5035155;28;20028;-59
2022/09/28 05:43:02;;;;;;;4.72;3.60;;;;;;;;;;5051111;28;20490;-59
2022/09/28 05:45:29;;;;;;;6.25;4.28;;;;;;;;;;5051165;28;20063;-59
2022/09/28 05:47:55;;;;;;;4.45;3.97;;;;;;;;;;5051026;28;20498;-58
2022/09/28 05:50:21;;;;;;;6.75;3.60;;;;;;;;;;5049573;28;20934;-55
2022/09/28 05:52:49;;;;;;;3.97;3.58;;;;;;;;;;5051026;28;20044;-56
2022/09/28 05:55:15;;;;;;;4.10;3.30;;;;;;;;;;5050952;28;20032;-53
2022/09/28 05:57:41;;;;;;;4.75;3.85;;;;;;;;;;5049663;28;20186;-53
2022/09/28 06:00:08;;;;;;;4.10;3.70;;;;;;;;;;5047388;28;20431;-54
2022/09/28 06:02:34;;;;;;;5.32;3.60;;;;;;;;;;5051189;28;20032;-54
2022/09/28 06:05:00;;;;;;;5.65;4.20;;;;;;;;;;5054530;28;20373;-55
2022/09/28 06:07:26;;;;;;;5.47;4.10;;;;;;;;;;5053111;28;20189;-54
2022/09/28 06:09:52;;;;;;;5.25;4.20;;;;;;;;;;5054353;28;20021;-54
2022/09/28 06:12:19;;;;;;;7.13;3.90;;;;;;;;;;5054487;28;20102;-53
2022/09/28 06:14:45;;;;;;;9.98;4.28;;;;;;;;;;5054382;28;20025;-53
2022/09/28 06:17:11;;;;;;;4.88;3.78;;;;;;;;;;5053002;28;20029;-55
2022/09/28 06:19:38;;;;;;;3.80;3.50;;;;;;;;;;5054171;28;20047;-56
2022/09/28 06:22:04;;;;;;;7.47;3.28;;;;;;;;;;5054236;28;20607;-55
2022/09/28 06:24:30;;;;;;;9.60;4.20;;;;;;;;;;5054196;28;20609;-56
2022/09/28 06:26:56;;;;;;;4.40;3.78;;;;;;;;;;5054038;28;20028;-54
2022/09/28 06:29:22;;;;;;;4.00;3.60;;;;;;;;;;5053797;28;20072;-54
2022/09/28 06:31:48;;;;;;;4.03;3.33;;;;;;;;;;5054034;28;20029;-55
2022/09/28 06:34:14;;;;;;;5.63;4.07;;;;;;;;;;5052773;28;20021;-53
2022/09/28 06:36:40;;;;;;;6.35;3.83;;;;;;;;;;5053967;28;20070;-53
2022/09/28 06:39:06;;;;;;;5.13;2.97;;;;;;;;;;5053630;28;20086;-55
2022/09/28 06:41:32;;;;;;;4.28;3.35;;;;;;;;;;5053849;28;20032;-56
2022/09/28 06:43:58;;;;;;;5.68;3.38;;;;;;;;;;5041696;28;20036;-54
2022/09/28 06:46:24;;;;;;;6.72;3.10;;;;;;;;;;5033615;28;20033;-54
2022/09/28 06:48:51;;;;;;;3.97;2.72;;;;;;;;;;5033558;28;20022;-54
2022/09/28 06:51:17;;;;;;;3.00;2.60;;;;;;;;;;5033689;28;20033;-54
2022/09/28 06:53:43;;;;;;;5.88;3.35;;;;;;;;;;5033732;28;20021;-53
2022/09/28 06:56:10;;;;;;;6.90;3.30;;;;;;;;;;5033513;28;20534;-53
2022/09/28 06:58:36;;;;;;;3.78;2.90;;;;;;;;;;5033412;28;20017;-53
2022/09/28 07:01:02;;;;;;;4.30;3.43;;;;;;;;;;5033559;28;20026;-59
2022/09/28 07:03:28;;;;;;;3.53;2.45;;;;;;;;;;5033706;28;20280;-58
2022/09/28 07:05:55;;;;;;;4.65;3.05;;;;;;;;;;5033463;28;20021;-59
2022/09/28 07:08:27;;;;;;;4.13;2.80;;;;;;;;;;5033169;28;20030;-59
2022/09/28 07:10:56;;;;;;;4.28;3.00;;;;;;;;;;5033468;28;20029;-59
2022/09/28 07:13:27;;;;;;;4.22;2.78;;;;;;;;;;5033300;28;20021;-59
2022/09/28 07:15:56;;;;;;;4.68;2.85;;;;;;;;;;5032693;28;20045;-59
2022/09/28 07:18:23;;;;;;;6.70;3.15;;;;;;;;;;5033073;28;20037;-57
2022/09/28 07:20:49;;;;;;;4.30;3.17;;;;;;;;;;5032088;28;20033;-58
2022/09/28 07:23:17;;;;;;;3.20;2.30;;;;;;;;;;5033164;28;20029;-59
2022/09/28 07:25:46;;;;;;;3.25;2.60;;;;;;;;;;5046278;28;20032;-52
2022/09/28 07:28:12;;;;;;;3.38;2.67;;;;;;;;;;5049746;28;20079;-53
2022/09/28 07:30:38;;;;;;;2.83;2.40;;;;;;;;;;5033009;28;20542;-59
2022/09/28 07:33:05;;;;;;;3.58;2.65;;;;;;;;;;5032824;28;20026;-58
2022/09/28 07:35:35;;;;;;;3.72;2.15;;;;;;;;;;5031214;28;20044;-58
2022/09/28 07:38:02;;;;;;;6.38;2.35;;;;;;;;;;5031506;28;20029;-57
2022/09/28 07:43:21;;;;;;;9.90;2.22;;;;;;;;;;5032750;28;20037;-57
2022/09/28 07:45:48;;;;;;;5.05;2.30;;;;;;;;;;5032624;28;20033;-59
2022/09/28 07:48:17;;;;;;;3.97;2.20;;;;;;;;;;5032231;28;20032;-59
2022/09/28 07:50:51;;;;;;;3.00;2.50;;;;;;;;;;5032560;28;20033;-59
2022/09/28 07:53:18;;;;;;;9.45;3.08;;;;;;;;;;5032497;28;20021;-59
2022/09/28 07:55:46;;;;;;;9.55;2.67;;;;;;;;;;5032376;28;20033;-60
2022/09/28 07:58:12;;;;;;;4.85;2.55;;;;;;;;;;5032080;28;20488;-59
2022/09/28 08:00:38;;;;;;;5.40;2.47;;;;;;;;;;5032345;28;20124;-59
2022/09/28 08:03:04;;;;;;;3.72;1.92;;;;;;;;;;5031037;28;20483;-59
2022/09/28 08:05:31;;;;;;;7.20;2.35;;;;;;;;;;5032305;28;20056;-58
2022/09/28 08:07:58;;;;;;;3.67;2.55;;;;;;;;;;5032308;28;20068;-59
2022/09/28 08:10:25;;;;;;;1.85;1.73;;;;;;;;;;5032026;28;20029;-59
2022/09/28 08:13:02;;;;;;;4.32;2.00;;;;;;;;;;5032203;28;20029;-59
2022/09/28 08:15:33;;;;;;;3.55;2.10;;;;;;;;;;5032288;28;20496;-56
2022/09/28 08:17:59;;;;;;;5.38;2.42;;;;;;;;;;5032101;28;20022;-59
2022/09/28 08:23:10;;;;;;;2.67;2.30;;;;;;;;;;5032002;28;20515;-59
2022/09/28 08:25:37;;;;;;;5.35;2.08;;;;;;;;;;5031836;28;20553;-59
2022/09/28 08:28:06;;;;;;;2.95;2.17;;;;;;;;;;5052037;23;20045;-52
2022/09/28 08:30:32;;;;;;;3.15;2.00;;;;;;;;;;5031770;28;20108;-51
2022/09/28 08:32:58;;;;;;;3.20;2.05;;;;;;;;;;5031689;28;20513;-54
2022/09/28 08:35:25;;;;;;;3.28;1.80;;;;;;;;;;5031790;28;20021;-54
2022/09/28 08:37:53;;;;;;;4.82;1.83;;;;;;;;;;5031688;28;20022;-55
2022/09/28 08:40:23;;;;;;;3.25;1.60;;;;;;;;;;5031544;28;20491;-52
2022/09/28 08:42:51;;;;;;;2.20;1.90;;;;;;;;;;5031776;28;20391;-52
2022/09/28 08:45:23;;;;;;;6.00;2.00;;;;;;;;;;5031594;28;20512;-55
2022/09/28 08:50:54;;;;;;;6.45;1.95;;;;;;;;;;5031668;28;20482;-53
2022/09/28 08:53:32;;;;;;;4.57;1.63;;;;;;;;;;5031562;28;20025;-52
2022/09/28 08:55:58;;;;;;;6.82;2.83;;;;;;;;;;5031506;28;20083;-52
2022/09/28 08:58:27;;;;;;;2.65;1.88;;;;;;;;;;5031291;28;20104;-52
2022/09/28 09:00:53;;;;;;;3.75;2.00;;;;;;;;;;5031555;28;20480;-52
2022/09/28 09:03:22;;;;;;;5.10;1.90;;;;;;;;;;5031476;28;20441;-51
2022/09/28 09:06:07;;;;;;;8.75;2.13;;;;;;;;;;5013739;28;20114;-53
2022/09/28 09:08:48;;;;;;;3.67;2.25;;;;;;;;;;5031126;28;20083;-54
2022/09/28 09:11:29;;;;;;;3.25;1.85;;;;;;;;;;5031634;28;20076;-52
2022/09/28 09:14:14;;;;;;;5.78;2.22;;;;;;;;;;5031470;28;20029;-56
2022/09/28 09:16:56;;;;;;;7.82;1.70;;;;;;;;;;5031362;28;20017;-52
2022/09/28 09:19:28;;;;;;;4.90;1.92;;;;;;;;;;5031038;28;20029;-51
2022/09/28 09:21:54;;;;;;;2.25;1.60;;;;;;;;;;5031320;28;20101;-54
2022/09/28 09:24:26;;;;;;;3.50;2.13;;;;;;;;;;5031419;28;20459;-51
2022/09/28 09:27:04;;;;;;;4.43;2.05;;;;;;;;;;5031079;28;20068;-55
2022/09/28 09:29:49;;;;;;;3.92;2.58;;;;;;;;;;5030993;28;20064;-52
2022/09/28 09:32:19;;;;;;;7.47;2.92;;;;;;;;;;5031317;28;20033;-52
2022/09/28 09:34:51;;;;;;;4.68;2.67;;;;;;;;;;5031222;28;20029;-55
2022/09/28 09:37:33;;;;;;;6.80;2.70;;;;;;;;;;5013418;28;20127;-58
2022/09/28 09:40:17;;;;;;;3.65;2.40;;;;;;;;;;5017047;28;20033;-53
2022/09/28 09:42:43;;;;;;;4.47;3.05;;;;;;;;;;5034990;28;20033;-52
2022/09/28 09:45:25;;;;;;;7.72;2.85;;;;;;;;;;5034972;28;20022;-52
2022/09/28 09:48:11;;;;;;;4.53;1.90;;;;;;;;;;5016931;28;20032;-52
2022/09/28 09:50:59;;;;;;;7.13;2.22;;;;;;;;;;5034276;28;20034;-54
2022/09/28 09:53:32;;;;;;;3.05;2.15;;;;;;;;;;5034825;28;20427;-52
2022/09/28 09:56:12;;;;;;;4.90;3.00;;;;;;;;;;5034640;28;20029;-55
2022/09/28 09:58:45;;;;;;;8.65;2.58;;;;;;;;;;5034356;28;20488;-56
2022/09/28 10:01:12;;;;;;;8.70;2.05;;;;;;;;;;5034537;28;20037;-57
2022/09/28 10:03:40;;;;;;;8.02;2.15;;;;;;;;;;5034534;28;20029;-52
2022/09/28 10:06:09;;;;;;;6.00;3.35;;;;;;;;;;5034398;28;20029;-54
2022/09/28 10:08:39;;;;;;;10.48;3.30;;;;;;;;;;5034140;28;20068;-52
2022/09/28 10:11:08;;;;;;;13.77;2.80;;;;;;;;;;5034127;28;20014;-52
2022/09/28 10:13:34;;;;;;;9.38;2.78;;;;;;;;;;5021495;28;20060;-52
2022/09/28 10:16:01;;;;;;;4.63;2.00;;;;;;;;;;5023573;28;20076;-53
2022/09/28 10:18:27;;;;;;;5.63;2.10;;;;;;;;;;5015635;28;20369;-53
2022/09/28 10:20:53;;;;;;;3.65;2.38;;;;;;;;;;5032040;28;20041;-51
2022/09/28 10:23:24;;;;;;;3.95;1.90;;;;;;;;;;5034090;28;20034;-52
2022/09/28 10:25:56;;;;;;;5.03;2.63;;;;;;;;;;5015576;28;20487;-55
2022/09/28 10:28:27;;;;;;;3.75;2.00;;;;;;;;;;5022690;28;20033;-52
2022/09/28 10:30:53;;;;;;;5.85;1.92;;;;;;;;;;5034105;28;20361;-57
2022/09/28 10:33:28;;;;;;;4.75;1.83;;;;;;;;;;5034102;28;20022;-55
2022/09/28 10:35:54;;;;;;;11.55;2.47;;;;;;;;;;5033539;28;20049;-56
2022/09/28 10:38:21;;;;;;;3.60;2.22;;;;;;;;;;5024034;28;20033;-53
2022/09/28 10:40:53;;;;;;;4.65;2.10;;;;;;;;;;5027470;28;20065;-53
2022/09/28 10:43:22;;;;;;;4.32;2.22;;;;;;;;;;4996523;28;20029;-54
2022/09/28 10:45:49;;;;;;;7.85;2.83;;;;;;;;;;5017163;28;20087;-52
2022/09/28 10:48:15;;;;;;;;;;;;;;;;;;4999716;28;20040;-57
2022/09/28 10:50:42;;;;;;;6.65;2.40;;;;;;;;;;5032542;28;19905;-55
2022/09/28 10:53:19;;;;;;;5.07;2.83;;;;;;;;;;5015957;28;20036;-54
2022/09/28 10:55:55;;;;;;;6.32;2.67;;;;;;;;;;5027094;28;20052;-55
2022/09/28 10:58:26;;;;;;;7.28;3.60;;;;;;;;;;5028864;28;20022;-54
2022/09/28 11:00:58;;;;;;;6.82;2.75;;;;;;;;;;5019693;28;20083;-51
2022/09/28 11:03:26;;;;;;;3.83;1.83;;;;;;;;;;5021507;28;20036;-53
2022/09/28 11:05:53;;;;;;;4.53;1.83;;;;;;;;;;5025783;28;20029;-55
2022/09/28 11:08:24;;;;;;;5.32;2.35;;;;;;;;;;5029464;28;20029;-51
2022/09/28 11:11:01;;;;;;;4.78;2.53;;;;;;;;;;5032443;28;20074;-54
2022/09/28 11:13:27;;;;;;;6.47;2.53;;;;;;;;;;5033413;28;20615;-61
2022/09/28 11:15:53;;;;;;;5.60;3.17;;;;;;;;;;5026403;28;20048;-57
2022/09/28 11:18:30;;;;;;;22.07;15.40;;;;;;;;;;5022352;28;20041;-57
2022/09/28 11:21:15;;;;;;;7.00;2.50;;;;;;;;;;5022415;28;20385;-57
2022/09/28 11:23:54;;;;;;;8.10;2.72;;;;;;;;;;5021384;28;20029;-58
2022/09/28 11:26:21;;;;;;;9.15;2.72;;;;;;;;;;5031679;28;20033;-56
2022/09/28 11:28:50;;;;;;;10.45;3.10;;;;;;;;;;5032289;28;20534;-53
2022/09/28 11:31:17;;;;;;;9.77;4.88;;;;;;;;;;5022834;28;20037;-54
2022/09/28 11:33:44;;;;;;;7.10;2.70;;;;;;;;;;5016085;28;20014;-57
2022/09/28 11:36:13;;;;;;;6.85;3.03;;;;;;;;;;5013021;28;20057;-52
2022/09/28 11:38:39;;;;;;;7.68;3.80;;;;;;;;;;5012870;28;20021;-53
2022/09/28 11:41:11;;;;;;;7.20;2.85;;;;;;;;;;5028738;28;20025;-52
2022/09/28 11:43:37;;;;;;;5.25;2.42;;;;;;;;;;5032835;28;20041;-54
2022/09/28 11:46:24;;;;;;;9.55;3.25;;;;;;;;;;5032413;28;20076;-52
2022/09/28 11:48:59;;;;;;;8.88;5.00;;;;;;;;;;5001247;28;20069;-52
2022/09/28 11:51:30;;;;;;;6.10;2.65;;;;;;;;;;5017531;28;20515;-52
2022/09/28 11:54:00;;;;;;;5.28;2.20;;;;;;;;;;5013907;28;20057;-53
2022/09/28 11:56:26;;;;;;;6.38;2.78;;;;;;;;;;5012816;28;20041;-52
2022/09/28 11:58:55;;;;;;;6.20;2.30;;;;;;;;;;5012608;28;20034;-55
2022/09/28 12:01:21;;;;;;;8.38;3.10;;;;;;;;;;4994857;28;20026;-57
2022/09/28 12:04:07;;;;;;;8.23;3.15;;;;;;;;;;5013083;28;20034;-55
2022/09/28 12:06:52;;;;;;;12.23;3.35;;;;;;;;;;5027428;28;20105;-56
2022/09/28 12:09:47;;;;;;;11.45;2.97;;;;;;;;;;5012531;28;20041;-53
2022/09/28 12:12:21;;;;;;;5.03;3.42;;;;;;;;;;4978261;28;20025;-55
2022/09/28 12:14:47;;;;;;;4.50;2.33;;;;;;;;;;5021014;28;20071;-54
2022/09/28 12:17:16;;;;;;;10.70;2.88;;;;;;;;;;5014160;28;20391;-57
2022/09/28 12:19:56;;;;;;;8.88;2.58;;;;;;;;;;5031846;28;20110;-54
2022/09/28 12:22:32;;;;;;;12.73;3.20;;;;;;;;;;5018894;28;20083;-51
2022/09/28 12:24:58;;;;;;;10.40;2.55;;;;;;;;;;5012309;28;20106;-56
2022/09/28 12:27:37;;;;;;;7.53;2.33;;;;;;;;;;5016594;28;20018;-59
2022/09/28 12:30:18;;;;;;;9.77;2.67;;;;;;;;;;5026206;28;20102;-55
2022/09/28 12:33:00;;;;;;;7.80;2.38;;;;;;;;;;5013474;28;20048;-53
2022/09/28 12:35:47;;;;;;;7.20;2.63;;;;;;;;;;5014498;28;20387;-54
2022/09/28 12:38:16;;;;;;;12.82;3.28;;;;;;;;;;5004124;28;20033;-52
2022/09/28 12:40:57;;;;;;;9.70;3.55;;;;;;;;;;5031876;28;20147;-56
2022/09/28 12:43:42;;;;;;;9.32;3.42;;;;;;;;;;5012032;28;20046;-57
2022/09/28 12:46:20;;;;;;;7.47;2.78;;;;;;;;;;5015417;28;20033;-56
2022/09/28 12:48:52;;;;;;;95.38;87.22;;;;;;;;;;5031666;28;20037;-56
2022/09/28 12:51:30;;;;;;;9.48;4.35;;;;;;;;;;5027661;28;20530;-57
2022/09/28 12:53:56;;;;;;;6.88;2.67;;;;;;;;;;5031534;28;20037;-53
2022/09/28 12:56:43;;;;;;;8.20;2.67;;;;;;;;;;5029785;28;20013;-56
2022/09/28 12:59:18;;;;;;;5.43;2.00;;;;;;;;;;5031223;28;20033;-59
2022/09/28 13:01:50;;;;;;;6.35;2.70;;;;;;;;;;5031568;28;20493;-54
2022/09/28 13:04:28;;;;;;;10.65;3.10;;;;;;;;;;5027208;28;20052;-55
2022/09/28 13:07:13;;;;;;;6.63;2.50;;;;;;;;;;5011901;28;20109;-56
2022/09/28 13:09:58;;;;;;;7.70;2.75;;;;;;;;;;5011540;28;20021;-57
2022/09/28 13:12:27;;;;;;;6.88;2.75;;;;;;;;;;5011860;28;20034;-56
2022/09/28 13:15:01;;;;;;;4.32;2.63;;;;;;;;;;5015989;28;20430;-54
2022/09/28 13:17:40;;;;;;;9.52;2.60;;;;;;;;;;5031159;28;20515;-58
2022/09/28 13:20:24;;;;;;;9.98;2.63;;;;;;;;;;5024312;28;20096;-58
2022/09/28 13:22:52;;;;;;;7.25;4.13;;;;;;;;;;5031930;28;20041;-52
2022/09/28 13:25:20;;;;;;;8.70;3.10;;;;;;;;;;5021285;28;20049;-52
2022/09/28 13:27:50;;;;;;;13.20;3.05;;;;;;;;;;5033574;28;20093;-58
2022/09/28 13:30:17;;;;;;;5.18;2.13;;;;;;;;;;5035070;28;20068;-57
2022/09/28 13:32:45;;;;;;;7.43;2.67;;;;;;;;;;5035174;28;20029;-55
2022/09/28 13:35:18;;;;;;;5.00;2.58;;;;;;;;;;5016288;28;20108;-58
2022/09/28 13:37:44;;;;;;;8.35;2.42;;;;;;;;;;5021918;28;20029;-59
2022/09/28 13:40:10;;;;;;;6.25;4.40;;;;;;;;;;5025351;28;20527;-58
2022/09/28 13:42:42;;;;;;;14.17;6.47;;;;;;;;;;5014989;28;20081;-61
2022/09/28 13:45:08;;;;;;;10.63;3.30;;;;;;;;;;5015829;28;20271;-58
2022/09/28 13:47:53;;;;;;;13.60;3.92;;;;;;;;;;5036191;28;20041;-58
2022/09/28 13:50:28;;;;;;;6.25;2.67;;;;;;;;;;5034625;28;20028;-56
2022/09/28 13:53:06;;;;;;;36.17;5.35;;;;;;;;;;5034737;28;20017;-57
2022/09/28 13:55:40;;;;;;;15.63;3.40;;;;;;;;;;5034781;28;20053;-54
2022/09/28 13:58:15;;;;;;;10.52;3.08;;;;;;;;;;5034792;28;20032;-59
2022/09/28 14:00:50;;;;;;;6.40;3.33;;;;;;;;;;5034486;28;20053;-57
2022/09/28 14:03:20;;;;;;;9.95;3.67;;;;;;;;;;5034320;28;20022;-56
2022/09/28 14:06:04;;;;;;;9.88;4.00;;;;;;;;;;5016166;28;20568;-54
2022/09/28 14:08:33;;;;;;;8.98;3.75;;;;;;;;;;5034259;28;20029;-55
2022/09/28 14:11:20;;;;;;;11.73;4.35;;;;;;;;;;5039489;28;20037;-55
2022/09/28 14:13:58;;;;;;;5.97;3.13;;;;;;;;;;5017989;28;20040;-56
2022/09/28 14:16:26;;;;;;;12.07;2.92;;;;;;;;;;5014540;28;20093;-56
2022/09/28 14:18:52;;;;;;;7.13;2.40;;;;;;;;;;5026938;28;20388;-56
2022/09/28 14:21:30;;;;;;;9.75;2.92;;;;;;;;;;5034338;28;20025;-57
2022/09/28 14:24:21;;;;;;;6.00;2.25;;;;;;;;;;5034458;28;20029;-56
2022/09/28 14:26:58;;;;;;;9.38;3.55;;;;;;;;;;5034169;28;20053;-58
2022/09/28 14:29:36;;;;;;;7.60;3.35;;;;;;;;;;5016211;28;20407;-56
2022/09/28 14:32:08;;;;;;;4.68;2.60;;;;;;;;;;5019601;28;20029;-57
2022/09/28 14:34:37;;;;;;;7.15;2.58;;;;;;;;;;5013506;28;20033;-56
2022/09/28 14:42:34;;;;;;;11.48;2.70;;;;;;;;;;5014543;28;20576;-53
2022/09/28 14:45:00;;;;;;;;;;;;;;;;;;4997008;28;20096;-55
2022/09/28 14:47:37;;;;;;;8.07;4.32;;;;;;;;;;5013860;28;20352;-54
2022/09/28 14:50:23;;;;;;;10.88;4.25;;;;;;;;;;5013941;28;20079;-54
2022/09/28 14:52:53;;;;;;;6.72;1.88;;;;;;;;;;5013943;28;20084;-54
2022/09/28 14:55:25;;;;;;;7.60;2.35;;;;;;;;;;5014113;28;20018;-55
2022/09/28 14:57:54;;;;;;;6.25;2.70;;;;;;;;;;5013828;28;20487;-56
2022/09/28 15:00:21;;;;;;;6.88;2.20;;;;;;;;;;5013616;28;20022;-55
2022/09/28 15:02:51;;;;;;;5.78;2.25;;;;;;;;;;5013775;28;20030;-53
2022/09/28 15:05:24;;;;;;;7.03;2.03;;;;;;;;;;5013776;28;20029;-53
2022/09/28 15:07:51;;;;;;;7.57;1.95;;;;;;;;;;5017349;28;20096;-56
2022/09/28 15:10:23;;;;;;;15.05;3.05;;;;;;;;;;5033295;28;20022;-56